20°C Temp
13°C Dewpoint
64% Humidity
Temperature
26 KM/H
16 MPH
14 KTS
220°
South West

Wind Speed
Partly Cloudy
Conditions
Pressure 1015.92 (hPa) - 30 (in)
Visibility 6.2 (mi) - 10.0 (km)

Current Conditions
NZAA
Location 257(km)
Metar :NZAA 102000Z AUTO 22014KT 9999 FEW035/// SCT043/// 20/13 Q1016 NOSIG
Sun 10th January 20:00 pm

Airport
  Metar Aviation API Data Provided by https://www.checkwx.com/ PHP scripts by weather34.com ©2021